Time;durP1;ratioP1;P1;durP2;ratioP2;P2;SDS_P1;SDS_P2;PMS_P1;PMS_P2;Temp;Humidity;BMP_temperature;BMP_pressure;BME280_temperature;BME280_humidity;BME280_pressure;Samples;Min_cycle;Max_cycle;Signal;HPM_P1;HPM_P2
2021/01/29 00:02:19;;;;;;;36.87;11.33;;;8.80;99.90;;;;;;4994061;28;20196;-67
2021/01/29 00:04:44;;;;;;;23.53;10.17;;;8.80;99.90;;;;;;5011519;28;20172;-67
2021/01/29 00:07:11;;;;;;;32.43;10.33;;;8.80;99.90;;;;;;5013370;28;20180;-67
2021/01/29 00:09:37;;;;;;;31.20;8.87;;;8.80;99.90;;;;;;4997525;28;20176;-66
2021/01/29 00:12:03;;;;;;;30.93;9.00;;;8.80;99.90;;;;;;5009036;28;20736;-66
2021/01/29 00:14:29;;;;;;;21.80;7.67;;;8.80;99.90;;;;;;5007872;28;20187;-66
2021/01/29 00:16:55;;;;;;;27.63;9.13;;;8.80;99.90;;;;;;5013131;28;20221;-66
2021/01/29 00:19:21;;;;;;;23.27;9.47;;;8.80;99.90;;;;;;5000573;28;20181;-66
2021/01/29 00:21:46;;;;;;;22.23;8.60;;;8.70;99.90;;;;;;4993934;28;20639;-66
2021/01/29 00:24:12;;;;;;;16.93;8.80;;;8.60;99.90;;;;;;5004101;28;20184;-66
2021/01/29 00:26:38;;;;;;;26.80;8.70;;;8.40;99.90;;;;;;5013258;28;20180;-67
2021/01/29 00:29:04;;;;;;;19.57;8.67;;;8.30;99.90;;;;;;5003925;28;20226;-66
2021/01/29 00:31:29;;;;;;;16.23;7.80;;;8.20;99.90;;;;;;4993609;28;20268;-66
2021/01/29 00:33:55;;;;;;;19.80;8.83;;;8.10;99.90;;;;;;5000280;28;20187;-66
2021/01/29 00:36:20;;;;;;;21.30;8.57;;;8.10;99.90;;;;;;5013057;28;20567;-66
2021/01/29 00:38:46;;;;;;;15.97;8.77;;;8.00;99.90;;;;;;5007589;28;20177;-67
2021/01/29 00:41:11;;;;;;;25.63;7.93;;;8.00;99.90;;;;;;4993360;28;20212;-66
2021/01/29 00:43:37;;;;;;;19.30;8.53;;;8.00;99.90;;;;;;4996276;28;20278;-67
2021/01/29 00:46:03;;;;;;;20.80;8.17;;;8.00;99.90;;;;;;5013023;28;20588;-66
2021/01/29 00:48:29;;;;;;;22.17;10.00;;;8.00;99.90;;;;;;5010916;28;20175;-67
2021/01/29 00:50:54;;;;;;;17.93;8.93;;;8.00;99.90;;;;;;4993242;28;20187;-66
2021/01/29 00:53:20;;;;;;;23.50;8.83;;;8.00;99.90;;;;;;4998278;28;20235;-66
2021/01/29 00:55:45;;;;;;;18.43;9.53;;;8.00;99.90;;;;;;5012861;28;20271;-65
2021/01/29 00:58:11;;;;;;;17.60;8.37;;;7.90;99.90;;;;;;5008802;28;20251;-67
2021/01/29 01:00:37;;;;;;;19.63;8.47;;;7.90;99.90;;;;;;4993099;28;20515;-67
2021/01/29 01:03:02;;;;;;;18.27;8.33;;;7.80;99.90;;;;;;4994270;28;20185;-66
2021/01/29 01:05:28;;;;;;;21.60;8.40;;;7.90;99.90;;;;;;5012624;28;20172;-65
2021/01/29 01:07:54;;;;;;;11.83;8.20;;;7.90;99.90;;;;;;5012066;28;20181;-67
2021/01/29 01:10:21;;;;;;;17.10;7.47;;;7.90;99.90;;;;;;4993046;28;20205;-66
2021/01/29 01:12:47;;;;;;;22.33;8.07;;;7.90;99.90;;;;;;4992925;28;20224;-67
2021/01/29 01:15:16;;;;;;;13.40;8.13;;;7.90;99.90;;;;;;5010372;28;20265;-65
2021/01/29 01:17:42;;;;;;;17.27;8.50;;;7.90;99.90;;;;;;5012127;28;20207;-66
2021/01/29 01:20:10;;;;;;;17.07;8.20;;;8.00;99.90;;;;;;4999096;28;20181;-67
2021/01/29 01:22:36;;;;;;;22.70;8.07;;;8.00;99.90;;;;;;4992689;28;20264;-66
2021/01/29 01:25:03;;;;;;;24.13;8.70;;;8.00;99.90;;;;;;5007450;28;20263;-66
2021/01/29 01:27:28;;;;;;;18.53;8.30;;;8.00;99.90;;;;;;5011838;28;20182;-65
2021/01/29 01:29:54;;;;;;;20.17;7.93;;;8.00;99.90;;;;;;4998823;28;20192;-66
2021/01/29 01:32:19;;;;;;;19.10;7.30;;;8.10;99.90;;;;;;4997990;28;20196;-67
2021/01/29 01:34:45;;;;;;;25.93;7.53;;;8.10;99.90;;;;;;5012249;28;20203;-65
2021/01/29 01:37:11;;;;;;;24.17;7.73;;;8.10;99.90;;;;;;5007459;28;20278;-65
2021/01/29 01:39:36;;;;;;;21.13;8.43;;;8.10;99.90;;;;;;4992439;28;20586;-66
2021/01/29 01:42:02;;;;;;;19.43;8.40;;;8.20;99.90;;;;;;4994189;28;20785;-67
2021/01/29 01:44:33;;;;;;;22.30;8.57;;;8.20;99.90;;;;;;5012076;28;20210;-67
2021/01/29 01:47:06;;;;;;;21.73;8.30;;;8.20;99.90;;;;;;5010459;28;20204;-66
2021/01/29 01:49:34;;;;;;;22.87;8.00;;;8.20;99.90;;;;;;4992413;28;20207;-68
2021/01/29 01:52:01;;;;;;;21.40;7.33;;;8.30;99.90;;;;;;4992461;28;20200;-66
2021/01/29 01:54:43;;;;;;;21.17;8.43;;;8.30;99.90;;;;;;5011925;28;20180;-66
2021/01/29 01:57:12;;;;;;;20.43;8.17;;;8.40;99.90;;;;;;5010283;28;20207;-68
2021/01/29 01:59:42;;;;;;;19.23;8.23;;;8.40;99.90;;;;;;4992245;28;20165;-67
2021/01/29 02:02:10;;;;;;;21.27;7.83;;;8.50;99.90;;;;;;4992473;28;20618;-67
2021/01/29 02:04:39;;;;;;;19.63;8.47;;;8.50;99.90;;;;;;5018209;28;20271;-65
2021/01/29 02:07:24;;;;;;;16.37;7.97;;;8.40;99.90;;;;;;5018079;28;20183;-65
2021/01/29 02:09:50;;;;;;;15.63;6.97;;;8.40;99.90;;;;;;5018372;28;20180;-66
2021/01/29 02:12:18;;;;;;;12.10;6.97;;;8.40;99.90;;;;;;5018120;28;20207;-67
2021/01/29 02:14:44;;;;;;;17.47;7.20;;;8.30;99.90;;;;;;4998844;28;20181;-66
2021/01/29 02:17:30;;;;;;;20.57;6.80;;;8.20;99.90;;;;;;4998076;28;20192;-66
2021/01/29 02:20:14;;;;;;;22.00;7.13;;;8.10;99.90;;;;;;4999914;28;20184;-66
2021/01/29 02:23:04;;;;;;;19.97;7.73;;;8.10;99.90;;;;;;5016136;28;20191;-66
2021/01/29 02:26:15;;;;;;;14.77;7.07;;;8.10;99.90;;;;;;4997289;28;20180;-66
2021/01/29 02:28:59;;;;;;;20.10;8.03;;;8.10;99.90;;;;;;5013888;28;20219;-67
2021/01/29 02:31:44;;;;;;;23.00;7.87;;;8.10;99.90;;;;;;5016601;28;20607;-67
2021/01/29 02:34:42;;;;;;;17.43;7.60;;;8.10;99.90;;;;;;5005332;28;20181;-67
2021/01/29 02:37:24;;;;;;;24.90;7.63;;;8.00;99.90;;;;;;4999723;28;20209;-67
2021/01/29 02:40:15;;;;;;;18.50;7.53;;;8.00;99.90;;;;;;5018371;28;20194;-66
2021/01/29 02:43:28;;;;;;;24.43;8.30;;;8.00;99.90;;;;;;5012043;28;20192;-66
2021/01/29 02:46:12;;;;;;;25.17;8.33;;;8.00;99.90;;;;;;5015653;28;20177;-67
2021/01/29 02:49:02;;;;;;;31.23;8.50;;;7.90;99.90;;;;;;5009128;28;20668;-66
2021/01/29 02:51:37;;;;;;;21.63;8.57;;;7.90;99.90;;;;;;5017902;28;20196;-66
2021/01/29 02:54:22;;;;;;;21.00;9.10;;;7.90;99.90;;;;;;5002217;28;20212;-66
2021/01/29 02:57:26;;;;;;;19.87;9.47;;;8.00;99.90;;;;;;4998114;28;20208;-66
2021/01/29 03:00:04;;;;;;;22.47;9.87;;;7.90;99.90;;;;;;4998385;28;20177;-66
2021/01/29 03:02:42;;;;;;;21.60;10.63;;;7.90;99.90;;;;;;4998497;28;20192;-66
2021/01/29 03:05:12;;;;;;;23.57;11.93;;;7.90;99.90;;;;;;4998162;28;20180;-67
2021/01/29 03:08:03;;;;;;;23.07;12.30;;;7.90;99.90;;;;;;4999747;28;20194;-67
2021/01/29 03:11:13;;;;;;;29.57;13.17;;;7.90;99.90;;;;;;5015827;28;20249;-67
2021/01/29 03:13:46;;;;;;;29.63;13.73;;;7.90;99.90;;;;;;5009210;28;20240;-67
2021/01/29 03:16:43;;;;;;;27.37;13.00;;;7.90;99.90;;;;;;4994228;28;20192;-67
2021/01/29 03:19:17;;;;;;;24.20;12.63;;;7.80;99.90;;;;;;5006595;28;20246;-67
2021/01/29 03:21:52;;;;;;;22.60;11.63;;;7.80;99.90;;;;;;5014566;28;20186;-67
2021/01/29 03:24:24;;;;;;;18.43;10.53;;;7.80;99.90;;;;;;5000852;28;20192;-67
2021/01/29 03:26:59;;;;;;;21.97;9.10;;;7.80;99.90;;;;;;4994767;28;20658;-67
2021/01/29 03:29:34;;;;;;;15.93;8.60;;;7.90;99.90;;;;;;5008189;28;20188;-67
2021/01/29 03:32:02;;;;;;;17.77;8.13;;;7.90;99.90;;;;;;5007086;28;20204;-67
2021/01/29 03:34:46;;;;;;;16.47;7.43;;;7.80;99.90;;;;;;4994600;28;20200;-67
2021/01/29 03:37:21;;;;;;;16.23;7.53;;;7.90;99.90;;;;;;5001979;28;20208;-67
2021/01/29 03:39:46;;;;;;;15.17;6.60;;;7.90;99.90;;;;;;5014408;28;20584;-67
2021/01/29 03:42:21;;;;;;;10.47;5.97;;;7.90;99.90;;;;;;5006630;28;20189;-67
2021/01/29 03:44:53;;;;;;;10.53;6.83;;;7.90;99.90;;;;;;4994683;28;20172;-67
2021/01/29 03:47:25;;;;;;;15.30;6.07;;;7.90;99.90;;;;;;5001291;28;20184;-67
2021/01/29 03:50:04;;;;;;;11.13;5.63;;;8.00;99.90;;;;;;5014200;28;20202;-67
2021/01/29 03:52:42;;;;;;;10.27;6.50;;;8.00;99.90;;;;;;5005160;28;20215;-67
2021/01/29 03:55:37;;;;;;;14.50;6.33;;;8.00;99.90;;;;;;4994323;28;20169;-67
2021/01/29 03:58:17;;;;;;;16.43;5.97;;;8.00;99.90;;;;;;5004498;28;20204;-67
2021/01/29 04:00:52;;;;;;;11.37;6.53;;;8.00;99.90;;;;;;5013987;28;20515;-67
2021/01/29 04:03:23;;;;;;;14.17;6.10;;;8.00;99.90;;;;;;4999708;28;20200;-67
2021/01/29 04:06:16;;;;;;;16.73;6.23;;;8.00;99.90;;;;;;4994297;28;20192;-67
2021/01/29 04:09:11;;;;;;;7.83;5.67;;;8.00;99.90;;;;;;5009453;28;20263;-67
2021/01/29 04:11:47;;;;;;;12.97;6.47;;;8.00;99.90;;;;;;5008761;28;20172;-67
2021/01/29 04:14:27;;;;;;;11.07;6.97;;;8.00;99.90;;;;;;4993994;28;20169;-67
2021/01/29 04:16:55;;;;;;;11.70;6.47;;;8.00;99.90;;;;;;4999569;28;20210;-67
2021/01/29 04:19:23;;;;;;;10.97;6.37;;;8.00;99.90;;;;;;5013233;28;20630;-67
2021/01/29 04:22:20;;;;;;;15.20;6.30;;;8.00;99.90;;;;;;5008158;28;20638;-67
2021/01/29 04:24:58;;;;;;;10.00;5.70;;;8.00;99.90;;;;;;4994093;28;20185;-67
2021/01/29 04:27:30;;;;;;;10.77;6.07;;;8.00;99.90;;;;;;4993285;28;20176;-67
2021/01/29 04:30:03;;;;;;;13.77;7.47;;;8.10;99.90;;;;;;4993817;28;20276;-67
2021/01/29 04:32:36;;;;;;;13.63;7.37;;;8.10;99.90;;;;;;4993865;28;20204;-67
2021/01/29 04:35:05;;;;;;;10.80;7.33;;;8.10;99.90;;;;;;4993689;28;20255;-67
2021/01/29 04:37:34;;;;;;;13.90;6.70;;;8.10;99.90;;;;;;4993065;28;20413;-67
2021/01/29 04:40:21;;;;;;;9.93;6.63;;;8.20;99.90;;;;;;4993548;28;20173;-67
2021/01/29 04:43:19;;;;;;;16.70;6.90;;;8.20;99.90;;;;;;4993719;28;20200;-67
2021/01/29 04:45:52;;;;;;;11.47;7.20;;;8.20;99.90;;;;;;4993821;28;20563;-67
2021/01/29 04:48:30;;;;;;;12.33;7.47;;;8.20;99.90;;;;;;4993007;28;20259;-67
2021/01/29 04:51:32;;;;;;;10.10;7.07;;;8.20;99.90;;;;;;4994575;28;20177;-67
2021/01/29 04:54:16;;;;;;;11.90;6.63;;;8.20;99.90;;;;;;4993280;28;20742;-67
2021/01/29 04:57:20;;;;;;;9.47;6.97;;;8.30;99.90;;;;;;5004204;28;20220;-67
2021/01/29 05:00:29;;;;;;;11.60;6.97;;;8.20;99.90;;;;;;5012787;28;20176;-67
2021/01/29 05:03:31;;;;;;;8.87;5.77;;;8.20;99.90;;;;;;4993087;28;20251;-67
2021/01/29 05:06:23;;;;;;;12.23;7.17;;;8.20;99.90;;;;;;4992366;28;20187;-67
2021/01/29 05:09:26;;;;;;;11.10;7.20;;;8.30;99.90;;;;;;4992752;28;20571;-67
2021/01/29 05:12:17;;;;;;;11.20;6.97;;;8.30;99.90;;;;;;5003764;28;20196;-67
2021/01/29 05:15:03;;;;;;;8.87;4.93;;;8.40;99.90;;;;;;5012573;28;20654;-67
2021/01/29 05:18:02;;;;;;;6.53;4.47;;;8.40;99.90;;;;;;4996077;28;20497;-67
2021/01/29 05:20:36;;;;;;;3.80;3.50;;;8.60;99.90;;;;;;4992798;28;20173;-67
2021/01/29 05:23:05;;;;;;;4.83;3.87;;;8.80;99.90;;;;;;5012082;28;20222;-67
2021/01/29 05:25:42;;;;;;;3.40;2.60;;;9.00;99.90;;;;;;5012433;28;20168;-67
2021/01/29 05:28:25;;;;;;;3.00;2.17;;;9.10;99.90;;;;;;5010769;28;20184;-67
2021/01/29 05:31:19;;;;;;;2.47;2.00;;;9.10;99.90;;;;;;5003949;28;20180;-67
2021/01/29 05:34:04;;;;;;;1.63;1.53;;;9.10;99.90;;;;;;4992674;28;20197;-67
2021/01/29 05:36:54;;;;;;;1.87;1.70;;;9.10;99.90;;;;;;5005038;28;20203;-67
2021/01/29 05:39:41;;;;;;;1.80;1.70;;;9.20;99.90;;;;;;5011551;28;20719;-67
2021/01/29 05:42:31;;;;;;;3.47;1.57;;;9.20;99.90;;;;;;4994607;28;20200;-67
2021/01/29 05:45:05;;;;;;;1.60;1.50;;;9.30;99.90;;;;;;4992716;28;20169;-67
2021/01/29 05:47:49;;;;;;;1.47;1.40;;;9.30;99.90;;;;;;4991956;28;20255;-67
2021/01/29 05:50:26;;;;;;;1.20;1.10;;;9.30;99.90;;;;;;4992636;28;20177;-67
2021/01/29 05:52:52;;;;;;;1.20;1.10;;;9.30;99.90;;;;;;5030794;23;20227;-67
2021/01/29 05:55:26;;;;;;;1.50;1.40;;;9.30;99.90;;;;;;5032502;28;20178;-65
2021/01/29 05:58:10;;;;;;;1.50;1.40;;;9.30;99.90;;;;;;5032936;28;20263;-66
2021/01/29 06:01:13;;;;;;;1.40;1.30;;;9.30;99.90;;;;;;5031147;28;20171;-67
2021/01/29 06:04:05;;;;;;;2.57;1.40;;;9.30;99.90;;;;;;4999266;28;20199;-66
2021/01/29 06:06:43;;;;;;;2.40;2.00;;;9.30;99.90;;;;;;5002837;28;20184;-64
2021/01/29 06:09:27;;;;;;;2.37;1.77;;;9.30;99.90;;;;;;5012648;28;20183;-65
2021/01/29 06:12:24;;;;;;;2.27;2.07;;;9.30;99.90;;;;;;5000566;28;20184;-65
2021/01/29 06:15:25;;;;;;;2.00;1.70;;;9.40;99.90;;;;;;4993363;28;20173;-65
2021/01/29 06:18:19;;;;;;;1.60;1.50;;;9.40;99.90;;;;;;4989330;28;20564;-67
2021/01/29 06:21:04;;;;;;;1.73;1.60;;;9.30;99.90;;;;;;5010965;28;20184;-66
2021/01/29 06:23:59;;;;;;;2.27;1.90;;;9.30;99.90;;;;;;4993708;28;20256;-65
2021/01/29 06:26:33;;;;;;;2.00;1.83;;;9.30;99.90;;;;;;4999415;28;20267;-66
2021/01/29 06:29:26;;;;;;;2.00;1.80;;;9.30;99.90;;;;;;5014607;28;20672;-65
2021/01/29 06:31:57;;;;;;;1.73;1.63;;;9.30;99.90;;;;;;5003206;28;20177;-66
2021/01/29 06:34:47;;;;;;;1.73;1.63;;;9.30;99.90;;;;;;4993995;28;20181;-66
2021/01/29 06:37:39;;;;;;;3.00;2.10;;;9.30;99.90;;;;;;5005965;28;20294;-65
2021/01/29 06:40:17;;;;;;;2.23;1.87;;;9.30;99.90;;;;;;5020488;28;20200;-66
2021/01/29 06:43:02;;;;;;;5.43;2.03;;;9.20;99.90;;;;;;4998423;28;20263;-65
2021/01/29 06:45:27;;;;;;;2.90;2.00;;;9.30;99.90;;;;;;4994257;28;20574;-66
2021/01/29 06:48:20;;;;;;;1.70;1.60;;;9.30;99.90;;;;;;5010001;28;20271;-66
2021/01/29 06:51:07;;;;;;;2.37;1.70;;;9.30;99.90;;;;;;5017578;28;20214;-66
2021/01/29 06:53:47;;;;;;;1.80;1.70;;;9.30;99.90;;;;;;4997424;28;20217;-66
2021/01/29 06:56:39;;;;;;;1.97;1.87;;;9.40;99.90;;;;;;4997425;28;20177;-66
2021/01/29 06:59:17;;;;;;;1.87;1.70;;;9.40;99.90;;;;;;4996817;28;20256;-66
2021/01/29 07:02:12;;;;;;;2.00;1.90;;;9.40;99.90;;;;;;5001252;28;20567;-66
2021/01/29 07:04:56;;;;;;;2.87;1.80;;;9.40;99.90;;;;;;5024264;28;20197;-67
2021/01/29 07:07:47;;;;;;;1.87;1.73;;;9.50;99.90;;;;;;5002573;28;20247;-64
2021/01/29 07:10:37;;;;;;;1.87;1.77;;;9.40;99.90;;;;;;4996567;28;20183;-66
2021/01/29 07:13:24;;;;;;;2.50;2.20;;;9.50;99.90;;;;;;5012135;28;20208;-65
2021/01/29 07:16:11;;;;;;;2.40;2.20;;;9.40;99.90;;;;;;5016286;28;20267;-67
2021/01/29 07:18:55;;;;;;;3.87;2.07;;;9.40;99.90;;;;;;4996580;28;20263;-66
2021/01/29 07:21:35;;;;;;;3.83;2.37;;;9.40;99.90;;;;;;4996744;28;20813;-65
2021/01/29 07:24:04;;;;;;;2.40;2.20;;;9.30;99.90;;;;;;5018599;28;20188;-66
2021/01/29 07:26:44;;;;;;;5.57;2.73;;;9.30;99.90;;;;;;5016428;28;20172;-66
2021/01/29 07:29:38;;;;;;;2.17;1.97;;;9.30;99.90;;;;;;4996798;28;20264;-66
2021/01/29 07:32:47;;;;;;;2.30;2.10;;;9.20;99.90;;;;;;4998009;28;20169;-65
2021/01/29 07:35:24;;;;;;;2.83;2.00;;;9.20;99.90;;;;;;4998587;28;20188;-65
2021/01/29 07:38:10;;;;;;;2.07;1.90;;;9.20;99.90;;;;;;5015903;28;20195;-66
2021/01/29 07:41:07;;;;;;;2.70;1.80;;;9.20;99.90;;;;;;5009476;28;20180;-66
2021/01/29 07:43:53;;;;;;;2.27;2.07;;;9.20;99.90;;;;;;5001452;28;20196;-66
2021/01/29 07:46:27;;;;;;;3.87;1.97;;;9.10;99.90;;;;;;5014525;28;20187;-67
2021/01/29 07:49:37;;;;;;;1.70;1.60;;;9.10;99.90;;;;;;5003774;28;20176;-67
2021/01/29 07:52:18;;;;;;;1.90;1.70;;;9.10;99.90;;;;;;4953925;29;20264;-67
2021/01/29 07:54:53;;;;;;;1.80;1.70;;;9.10;99.90;;;;;;5010061;28;20196;-66
2021/01/29 07:57:27;;;;;;;4.63;2.00;;;9.10;99.90;;;;;;5014459;28;20632;-66
2021/01/29 08:00:21;;;;;;;2.63;1.60;;;9.00;99.90;;;;;;4997875;28;20176;-65
2021/01/29 08:03:30;;;;;;;4.57;1.60;;;9.00;99.90;;;;;;4997957;28;20192;-68
2021/01/29 08:06:04;;;;;;;5.03;2.00;;;9.00;99.90;;;;;;4995873;28;20165;-67
2021/01/29 08:08:36;;;;;;;3.27;2.20;;;9.00;99.90;;;;;;4994865;28;20199;-64
2021/01/29 08:11:03;;;;;;;10.90;3.40;;;8.90;99.90;;;;;;4994052;28;20219;-66
2021/01/29 08:13:31;;;;;;;8.23;3.07;;;8.90;99.90;;;;;;5002758;28;20608;-67
2021/01/29 08:16:12;;;;;;;6.00;2.40;;;9.00;99.90;;;;;;5011297;28;20188;-66
2021/01/29 08:19:11;;;;;;;11.00;5.17;;;9.10;99.90;;;;;;4995082;28;20217;-66
2021/01/29 08:21:52;;;;;;;13.37;4.43;;;9.10;99.90;;;;;;5004705;28;20616;-65
2021/01/29 08:24:58;;;;;;;13.27;3.73;;;9.10;99.90;;;;;;5014632;28;20214;-65
2021/01/29 08:27:30;;;;;;;14.87;4.53;;;9.20;99.90;;;;;;4997756;28;20220;-66
2021/01/29 08:30:24;;;;;;;13.80;4.30;;;9.20;99.90;;;;;;4994546;28;20252;-66
2021/01/29 08:32:59;;;;;;;15.57;3.50;;;9.30;99.90;;;;;;4997597;28;20227;-67
2021/01/29 08:35:49;;;;;;;13.40;3.17;;;9.30;99.90;;;;;;5013541;28;20175;-63
2021/01/29 08:38:34;;;;;;;11.73;2.90;;;9.30;99.90;;;;;;4994188;28;20212;-66
2021/01/29 08:41:00;;;;;;;13.93;3.00;;;9.40;99.90;;;;;;4996845;28;20172;-67
2021/01/29 08:43:34;;;;;;;16.17;3.83;;;9.40;99.90;;;;;;5014651;28;20195;-65
2021/01/29 08:46:08;;;;;;;14.40;3.80;;;9.40;99.90;;;;;;5013250;28;20183;-66
2021/01/29 08:48:46;;;;;;;13.43;3.03;;;9.40;99.90;;;;;;4994807;28;20558;-66
2021/01/29 08:51:18;;;;;;;15.43;3.80;;;9.50;99.90;;;;;;4996849;28;20183;-67
2021/01/29 08:54:21;;;;;;;17.13;3.33;;;9.50;99.90;;;;;;5014133;28;20222;-65
2021/01/29 08:57:32;;;;;;;11.33;2.60;;;9.50;99.90;;;;;;5010932;28;20219;-67
2021/01/29 09:00:00;;;;;;;14.70;3.13;;;9.50;99.90;;;;;;4979596;28;20654;-65
2021/01/29 09:02:37;;;;;;;8.43;2.90;;;9.60;99.90;;;;;;5006549;28;20690;-65
2021/01/29 09:05:20;;;;;;;11.13;3.00;;;9.60;99.90;;;;;;5014341;28;20200;-66
2021/01/29 09:07:47;;;;;;;14.90;3.87;;;9.70;99.90;;;;;;4999165;28;20181;-67
2021/01/29 09:10:44;;;;;;;12.37;3.50;;;9.70;99.90;;;;;;4994707;28;20180;-67
2021/01/29 09:13:16;;;;;;;10.17;3.37;;;9.70;99.90;;;;;;5010361;28;20211;-65
2021/01/29 09:16:07;;;;;;;8.73;3.37;;;9.80;99.90;;;;;;5013786;28;20182;-64
2021/01/29 09:19:00;;;;;;;9.70;3.07;;;9.80;99.90;;;;;;4992332;28;20207;-67
2021/01/29 09:21:44;;;;;;;10.97;3.40;;;9.80;99.90;;;;;;4991306;28;20188;-65
2021/01/29 09:24:18;;;;;;;9.60;3.47;;;9.90;99.90;;;;;;5013883;28;20210;-64
2021/01/29 09:26:49;;;;;;;10.47;2.77;;;9.90;99.90;;;;;;5008984;28;20219;-66
2021/01/29 09:29:27;;;;;;;12.27;3.50;;;10.00;99.90;;;;;;4993335;28;20572;-65
2021/01/29 09:31:58;;;;;;;11.97;3.03;;;10.00;99.90;;;;;;4993455;28;20188;-67
2021/01/29 09:34:31;;;;;;;15.60;5.60;;;10.10;99.90;;;;;;4993086;28;20650;-66
2021/01/29 09:37:02;;;;;;;12.87;3.47;;;10.10;99.90;;;;;;4993075;28;20736;-66
2021/01/29 09:39:51;;;;;;;13.00;3.63;;;10.10;99.90;;;;;;4992767;28;20296;-64
2021/01/29 09:42:50;;;;;;;15.90;4.23;;;10.10;99.90;;;;;;4992928;28;20200;-67
2021/01/29 09:45:23;;;;;;;12.90;3.70;;;10.10;99.90;;;;;;4998604;28;20214;-66
2021/01/29 09:48:00;;;;;;;18.03;4.67;;;10.10;99.90;;;;;;5012131;28;20664;-66
2021/01/29 09:50:29;;;;;;;13.20;3.93;;;10.00;99.90;;;;;;5005541;28;20521;-66
2021/01/29 09:53:06;;;;;;;14.40;4.27;;;10.00;99.90;;;;;;4992439;28;20623;-66
2021/01/29 09:55:56;;;;;;;13.07;4.17;;;10.00;99.90;;;;;;4997452;28;20601;-66
2021/01/29 09:58:57;;;;;;;13.17;3.73;;;10.10;99.90;;;;;;5011879;28;20328;-67
2021/01/29 10:01:25;;;;;;;13.27;3.20;;;10.20;99.90;;;;;;4998420;28;20216;-67
2021/01/29 10:04:05;;;;;;;13.63;3.57;;;10.40;99.90;;;;;;4992399;28;20555;-65
2021/01/29 10:06:33;;;;;;;16.10;3.87;;;10.40;99.90;;;;;;5005844;28;20187;-65
2021/01/29 10:09:03;;;;;;;9.67;3.30;;;10.50;99.90;;;;;;5011020;28;20168;-66
2021/01/29 10:11:39;;;;;;;10.90;2.97;;;10.50;99.90;;;;;;4998393;28;20176;-66
2021/01/29 10:14:24;;;;;;;15.70;3.60;;;10.60;99.90;;;;;;4996771;28;20214;-64
2021/01/29 10:17:04;;;;;;;9.80;2.67;;;10.60;99.90;;;;;;4991661;28;20708;-66
2021/01/29 10:19:42;;;;;;;21.10;4.63;;;10.70;99.90;;;;;;5000495;28;20186;-66
2021/01/29 10:22:39;;;;;;;13.93;2.97;;;10.80;99.90;;;;;;5011554;28;20164;-66
2021/01/29 10:25:23;;;;;;;24.73;6.03;;;10.90;99.90;;;;;;5012789;28;20176;-66
2021/01/29 10:27:54;;;;;;;13.33;4.10;;;11.00;99.90;;;;;;5015161;28;20172;-66
2021/01/29 10:30:28;;;;;;;13.93;3.50;;;11.00;99.90;;;;;;5000658;28;20665;-65
2021/01/29 10:33:20;;;;;;;19.23;3.90;;;11.10;99.90;;;;;;4995896;28;20238;-65
2021/01/29 10:35:55;;;;;;;15.47;4.67;;;11.20;99.90;;;;;;5013464;28;20595;-65
2021/01/29 10:38:42;;;;;;;17.03;3.23;;;11.10;99.90;;;;;;5015313;28;20207;-66
2021/01/29 10:41:22;;;;;;;15.63;3.70;;;11.00;99.90;;;;;;4996017;28;20187;-64
2021/01/29 10:43:57;;;;;;;12.00;3.30;;;11.00;99.90;;;;;;4996126;28;20188;-65
2021/01/29 10:46:35;;;;;;;15.67;4.00;;;11.00;99.90;;;;;;5013741;28;20615;-66
2021/01/29 10:49:34;;;;;;;12.47;3.77;;;11.00;99.90;;;;;;5013852;28;20242;-66
2021/01/29 10:52:06;;;;;;;15.87;3.90;;;10.80;99.90;;;;;;5014741;28;20725;-66
2021/01/29 10:54:39;;;;;;;19.27;3.97;;;10.90;99.90;;;;;;5015349;28;20533;-66
2021/01/29 10:57:45;;;;;;;13.37;3.80;;;10.90;99.90;;;;;;5014903;28;20284;-65
2021/01/29 11:00:17;;;;;;;17.23;3.70;;;11.00;99.90;;;;;;5015426;28;20194;-65
2021/01/29 11:02:48;;;;;;;23.33;4.00;;;11.00;99.90;;;;;;5013690;28;20282;-65
2021/01/29 11:05:24;;;;;;;14.70;3.47;;;11.00;99.90;;;;;;5014978;28;20164;-65
2021/01/29 11:07:54;;;;;;;15.90;3.77;;;11.10;99.90;;;;;;5014482;28;20180;-65
2021/01/29 11:10:19;;;;;;;15.30;3.63;;;11.20;99.90;;;;;;5004119;28;20181;-65
2021/01/29 11:13:32;;;;;;;16.37;3.53;;;11.10;99.90;;;;;;5014946;28;20200;-65
2021/01/29 11:16:04;;;;;;;12.00;3.67;;;11.20;99.90;;;;;;5002821;28;20600;-65
2021/01/29 11:18:37;;;;;;;15.17;3.60;;;11.20;99.90;;;;;;4994988;28;20204;-65
2021/01/29 11:21:31;;;;;;;15.23;3.60;;;11.10;99.90;;;;;;4995547;28;20173;-65
2021/01/29 11:24:08;;;;;;;16.10;4.23;;;11.10;99.90;;;;;;4980912;28;20204;-66
2021/01/29 11:26:38;;;;;;;9.53;3.77;;;11.00;99.90;;;;;;5014907;28;20176;-65
2021/01/29 11:29:17;;;;;;;18.90;3.47;;;11.00;99.90;;;;;;5003282;28;20180;-65
2021/01/29 11:32:03;;;;;;;15.73;3.73;;;11.00;99.90;;;;;;4995329;28;20172;-66
2021/01/29 11:34:32;;;;;;;15.50;3.77;;;11.00;99.90;;;;;;5009168;28;20245;-65
2021/01/29 11:37:13;;;;;;;14.23;3.70;;;11.10;99.90;;;;;;5013427;28;20219;-65
2021/01/29 11:40:06;;;;;;;19.77;3.93;;;11.00;99.90;;;;;;4999335;28;20586;-65
2021/01/29 11:42:56;;;;;;;11.90;3.40;;;10.90;99.90;;;;;;4987194;28;20604;-65
2021/01/29 11:45:27;;;;;;;19.20;4.73;;;10.80;99.90;;;;;;4994766;28;20189;-67
2021/01/29 11:48:07;;;;;;;15.43;3.83;;;10.50;99.90;;;;;;4994425;28;20173;-67
2021/01/29 11:50:38;;;;;;;9.17;3.00;;;10.30;99.90;;;;;;4994492;28;20165;-67
2021/01/29 11:53:40;;;;;;;12.93;4.57;;;10.30;99.90;;;;;;5042401;23;20234;-64
2021/01/29 11:56:31;;;;;;;18.07;4.00;;;10.50;99.90;;;;;;5011648;28;20813;-64
2021/01/29 11:59:21;;;;;;;15.07;4.43;;;10.50;99.90;;;;;;5033626;28;20644;-64
2021/01/29 12:01:58;;;;;;;16.63;3.50;;;10.60;99.90;;;;;;5023786;28;20172;-64
2021/01/29 12:04:47;;;;;;;11.70;3.50;;;10.90;99.90;;;;;;4996131;28;20559;-65
2021/01/29 12:07:20;;;;;;;7.60;2.57;;;11.50;99.90;;;;;;5005581;28;20279;-65
2021/01/29 12:10:01;;;;;;;11.70;3.17;;;12.20;99.90;;;;;;5013426;28;20173;-65
2021/01/29 12:12:36;;;;;;;10.60;2.67;;;12.60;99.90;;;;;;4998330;28;20694;-65
2021/01/29 12:15:24;;;;;;;9.67;3.00;;;12.80;99.90;;;;;;4994112;28;20217;-64
2021/01/29 12:17:53;;;;;;;9.30;3.13;;;12.90;99.90;;;;;;5009437;28;20216;-64
2021/01/29 12:20:31;;;;;;;10.20;3.30;;;13.00;99.90;;;;;;5013288;28;20176;-65
2021/01/29 12:23:29;;;;;;;10.27;3.23;;;13.20;99.90;;;;;;4996519;28;20203;-64
2021/01/29 12:25:55;;;;;;;11.77;3.20;;;13.10;99.90;;;;;;4993660;28;20702;-66
2021/01/29 12:28:49;;;;;;;15.23;3.53;;;12.60;99.90;;;;;;5012540;28;20311;-62
2021/01/29 12:31:15;;;;;;;11.90;3.10;;;12.20;99.90;;;;;;5011078;28;20663;-64
2021/01/29 12:34:17;;;;;;;14.43;3.07;;;11.80;99.90;;;;;;4993386;28;20205;-64
2021/01/29 12:36:57;;;;;;;7.30;2.93;;;11.50;99.90;;;;;;4997869;28;20241;-64
2021/01/29 12:39:30;;;;;;;7.23;2.43;;;11.50;99.90;;;;;;5012829;28;20649;-64
2021/01/29 12:42:19;;;;;;;7.67;1.90;;;11.40;99.90;;;;;;5006862;28;20264;-65
2021/01/29 12:45:01;;;;;;;7.60;2.53;;;11.20;99.90;;;;;;4993450;28;20196;-64
2021/01/29 12:47:41;;;;;;;5.30;1.97;;;11.10;99.90;;;;;;5001786;28;20253;-64
2021/01/29 12:50:44;;;;;;;9.23;2.77;;;11.00;99.90;;;;;;5012875;28;20187;-64
2021/01/29 12:53:28;;;;;;;4.97;2.13;;;11.20;99.90;;;;;;4997263;28;20216;-64
2021/01/29 12:56:11;;;;;;;8.30;2.60;;;11.50;99.90;;;;;;4992922;28;20173;-64
2021/01/29 12:58:43;;;;;;;6.40;2.10;;;11.80;99.90;;;;;;5010140;28;20565;-64
2021/01/29 13:01:19;;;;;;;5.53;2.07;;;12.40;99.90;;;;;;5012456;28;20210;-64
2021/01/29 13:04:14;;;;;;;8.97;2.23;;;12.80;99.90;;;;;;4997769;28;20197;-64
2021/01/29 13:06:42;;;;;;;8.57;2.50;;;12.90;99.90;;;;;;4992872;28;20723;-65
2021/01/29 13:09:53;;;;;;;7.43;2.83;;;13.00;99.90;;;;;;5012169;28;20176;-64
2021/01/29 13:12:31;;;;;;;12.80;2.77;;;12.40;99.90;;;;;;5007278;28;20177;-64
2021/01/29 13:15:25;;;;;;;10.30;2.60;;;12.40;99.90;;;;;;4992749;28;20244;-64
2021/01/29 13:18:04;;;;;;;9.40;2.47;;;12.20;99.90;;;;;;5000644;28;20752;-64
2021/01/29 13:20:34;;;;;;;9.67;2.83;;;12.10;99.90;;;;;;5012169;28;20259;-63
2021/01/29 13:23:21;;;;;;;13.20;3.17;;;12.10;99.90;;;;;;5002918;28;20566;-63
2021/01/29 13:26:04;;;;;;;11.27;2.77;;;12.20;99.90;;;;;;4992587;28;20309;-65
2021/01/29 13:28:33;;;;;;;9.57;2.63;;;12.20;99.90;;;;;;5010431;28;20444;-63
2021/01/29 13:31:20;;;;;;;9.87;3.27;;;12.00;99.90;;;;;;5012099;28;20187;-64
2021/01/29 13:33:54;;;;;;;15.00;2.90;;;11.70;99.90;;;;;;4992311;28;20634;-63
2021/01/29 13:36:27;;;;;;;12.33;3.80;;;11.40;99.90;;;;;;4992610;28;20176;-64
2021/01/29 13:38:54;;;;;;;10.80;2.87;;;11.20;99.90;;;;;;4992043;28;20189;-64
2021/01/29 13:41:42;;;;;;;9.13;3.07;;;11.00;99.90;;;;;;4992106;28;20176;-64
2021/01/29 13:44:34;;;;;;;12.90;3.90;;;10.80;99.90;;;;;;4992253;28;20764;-64
2021/01/29 13:47:00;;;;;;;9.73;2.90;;;10.50;99.90;;;;;;4995831;28;20258;-65
2021/01/29 13:49:39;;;;;;;10.10;2.60;;;10.30;99.90;;;;;;5011828;28;20586;-65
2021/01/29 13:52:29;;;;;;;9.93;2.80;;;10.20;99.90;;;;;;5007288;28;20188;-65